Time;durP1;ratioP1;P1;durP2;ratioP2;P2;SDS_P1;SDS_P2;PMS_P1;PMS_P2;Temp;Humidity;BMP_temperature;BMP_pressure;BME280_temperature;BME280_humidity;BME280_pressure;Samples;Min_cycle;Max_cycle;Signal;HPM_P1;HPM_P2
2023/12/16 00:00:08;;;;;;;15.47;5.87;;;7.70;99.90;;;;;;5051121;28;20450;-75
2023/12/16 00:02:34;;;;;;;15.07;5.30;;;7.70;99.90;;;;;;5050761;28;20541;-73
2023/12/16 00:05:01;;;;;;;13.63;5.97;;;7.70;99.90;;;;;;5050919;28;20475;-75
2023/12/16 00:07:30;;;;;;;12.83;4.60;;;7.80;99.90;;;;;;5051124;28;20535;-73
2023/12/16 00:09:57;;;;;;;16.63;6.37;;;7.80;99.90;;;;;;5050957;28;20482;-75
2023/12/16 00:12:24;;;;;;;17.00;5.23;;;7.80;99.90;;;;;;5050724;28;20575;-75
2023/12/16 00:14:51;;;;;;;16.83;5.93;;;7.80;99.90;;;;;;5051006;28;20453;-72
2023/12/16 00:17:18;;;;;;;13.03;4.83;;;7.80;99.90;;;;;;5050640;28;20451;-75
2023/12/16 00:19:45;;;;;;;21.20;5.70;;;7.80;99.90;;;;;;5051480;28;20457;-75
2023/12/16 00:22:12;;;;;;;24.33;6.70;;;7.80;99.90;;;;;;5050689;28;20512;-75
2023/12/16 00:24:41;;;;;;;17.30;5.73;;;7.80;99.90;;;;;;5050903;28;20517;-75
2023/12/16 00:27:08;;;;;;;12.00;5.57;;;7.70;99.90;;;;;;5050849;28;20450;-75
2023/12/16 00:29:35;;;;;;;17.30;6.83;;;7.70;99.90;;;;;;5050877;28;20515;-75
2023/12/16 00:32:02;;;;;;;13.93;6.27;;;7.70;99.90;;;;;;5050724;28;20454;-75
2023/12/16 00:34:29;;;;;;;16.33;6.23;;;7.70;99.90;;;;;;5050534;28;20930;-75
2023/12/16 00:36:56;;;;;;;17.23;6.10;;;7.60;99.90;;;;;;5050672;28;20450;-72
2023/12/16 00:39:23;;;;;;;22.53;6.90;;;7.60;99.90;;;;;;5050849;28;20487;-72
2023/12/16 00:41:51;;;;;;;19.20;6.07;;;7.60;99.90;;;;;;5050752;28;20458;-74
2023/12/16 00:44:18;;;;;;;17.40;8.47;;;7.50;99.90;;;;;;5050356;28;20450;-74
2023/12/16 00:46:45;;;;;;;17.10;7.03;;;7.50;99.90;;;;;;5050831;28;20450;-75
2023/12/16 00:49:12;;;;;;;18.83;7.87;;;7.50;99.90;;;;;;5052371;28;20493;-75
2023/12/16 00:51:39;;;;;;;16.07;7.80;;;7.50;99.90;;;;;;5054176;28;20516;-72
2023/12/16 00:54:06;;;;;;;17.80;8.50;;;7.40;99.90;;;;;;5053940;28;20453;-72
2023/12/16 00:56:33;;;;;;;14.10;7.83;;;7.40;99.90;;;;;;5054098;28;20483;-72
2023/12/16 00:59:01;;;;;;;20.53;9.37;;;7.40;99.90;;;;;;5054048;28;20538;-72
2023/12/16 01:01:28;;;;;;;16.33;9.40;;;7.40;99.90;;;;;;5054113;28;20496;-72
2023/12/16 01:03:55;;;;;;;17.20;10.00;;;7.30;99.90;;;;;;5053826;28;20461;-72
2023/12/16 01:06:22;;;;;;;18.47;10.90;;;7.30;99.90;;;;;;5054192;28;20480;-72
2023/12/16 01:08:50;;;;;;;17.60;10.73;;;7.30;99.90;;;;;;5053920;28;20448;-72
2023/12/16 01:11:18;;;;;;;18.33;10.80;;;7.30;99.90;;;;;;5053914;28;20453;-72
2023/12/16 01:13:45;;;;;;;16.03;11.80;;;7.30;99.90;;;;;;5053541;28;20956;-72
2023/12/16 01:16:13;;;;;;;25.47;12.80;;;7.30;99.90;;;;;;5053940;28;20544;-72
2023/12/16 01:18:40;;;;;;;17.10;10.70;;;7.20;99.90;;;;;;5053842;28;20838;-72
2023/12/16 01:21:08;;;;;;;17.53;10.77;;;7.20;99.90;;;;;;5053788;28;20546;-72
2023/12/16 01:23:36;;;;;;;18.70;11.70;;;7.20;99.90;;;;;;5053371;28;20448;-72
2023/12/16 01:26:03;;;;;;;15.23;10.07;;;7.20;99.90;;;;;;5053541;28;20484;-72
2023/12/16 01:28:30;;;;;;;13.83;10.07;;;7.20;99.90;;;;;;5053423;28;21035;-75
2023/12/16 01:30:57;;;;;;;14.83;10.40;;;7.20;99.90;;;;;;5053557;28;20941;-75
2023/12/16 01:33:25;;;;;;;17.00;10.30;;;7.30;99.90;;;;;;5053390;28;20484;-75
2023/12/16 01:35:52;;;;;;;21.63;11.77;;;7.20;99.90;;;;;;5053688;28;20542;-75
2023/12/16 01:38:19;;;;;;;24.73;11.27;;;7.20;99.90;;;;;;5053237;28;20530;-75
2023/12/16 01:40:46;;;;;;;17.20;10.60;;;7.20;99.90;;;;;;5053333;28;20461;-75
2023/12/16 01:43:13;;;;;;;13.87;11.40;;;7.20;99.90;;;;;;5053304;28;20510;-75
2023/12/16 01:45:41;;;;;;;11.70;10.30;;;7.20;99.90;;;;;;5053394;28;20485;-72
2023/12/16 01:48:08;;;;;;;20.17;11.90;;;7.20;99.90;;;;;;5053134;28;20850;-72
2023/12/16 01:50:36;;;;;;;15.17;10.23;;;7.10;99.90;;;;;;5053131;28;20489;-72
2023/12/16 01:53:06;;;;;;;12.73;10.97;;;7.20;99.90;;;;;;5052681;28;20941;-72
2023/12/16 01:55:33;;;;;;;23.60;10.33;;;7.20;99.90;;;;;;5053262;28;20527;-72
2023/12/16 01:58:03;;;;;;;26.77;12.37;;;7.20;99.90;;;;;;5052928;28;20931;-72
2023/12/16 02:00:32;;;;;;;17.07;10.40;;;7.20;99.90;;;;;;5053066;28;20988;-72
2023/12/16 02:02:59;;;;;;;17.43;8.33;;;7.20;99.90;;;;;;5052639;28;20488;-72
2023/12/16 02:05:26;;;;;;;12.37;8.60;;;7.20;99.90;;;;;;5052876;28;20509;-72
2023/12/16 02:07:54;;;;;;;21.40;10.77;;;7.20;99.90;;;;;;5052604;28;20449;-72
2023/12/16 02:10:21;;;;;;;15.37;8.77;;;7.20;99.90;;;;;;5053024;28;20519;-72
2023/12/16 02:12:49;;;;;;;16.90;9.37;;;7.10;99.90;;;;;;5052950;28;20457;-72
2023/12/16 02:15:16;;;;;;;18.10;9.07;;;7.10;99.90;;;;;;5052916;28;20441;-72
2023/12/16 02:17:43;;;;;;;14.87;8.70;;;7.10;99.90;;;;;;5052709;28;20854;-72
2023/12/16 02:20:11;;;;;;;17.07;7.80;;;7.10;99.90;;;;;;5052558;28;20508;-72
2023/12/16 02:22:38;;;;;;;13.07;7.50;;;7.10;99.90;;;;;;5052281;28;21018;-72
2023/12/16 02:25:10;;;;;;;20.87;8.10;;;7.10;99.90;;;;;;5052989;28;20564;-72
2023/12/16 02:27:37;;;;;;;20.00;7.00;;;7.10;99.90;;;;;;5052873;28;20493;-72
2023/12/16 02:30:05;;;;;;;14.00;6.40;;;7.10;99.90;;;;;;5052635;28;20448;-72
2023/12/16 02:32:31;;;;;;;16.20;7.37;;;7.10;99.90;;;;;;5052464;28;20458;-72
2023/12/16 02:34:58;;;;;;;18.97;6.40;;;7.10;99.90;;;;;;5052350;28;20547;-72
2023/12/16 02:37:25;;;;;;;13.00;5.53;;;7.10;99.90;;;;;;5052588;28;20461;-72
2023/12/16 02:39:52;;;;;;;15.10;6.50;;;7.00;99.90;;;;;;5052515;28;20871;-72
2023/12/16 02:42:20;;;;;;;18.97;7.40;;;7.10;99.90;;;;;;5051861;28;20447;-72
2023/12/16 02:44:47;;;;;;;16.80;6.87;;;7.10;99.90;;;;;;5052602;28;20546;-72
2023/12/16 02:47:14;;;;;;;13.40;6.90;;;7.00;99.90;;;;;;5051810;28;20480;-72
2023/12/16 02:49:41;;;;;;;12.00;6.27;;;7.00;99.90;;;;;;5052124;28;20454;-72
2023/12/16 02:52:08;;;;;;;17.80;8.60;;;7.10;99.90;;;;;;5051862;28;20510;-72
2023/12/16 02:54:35;;;;;;;15.97;7.90;;;7.00;99.90;;;;;;5052084;28;20458;-72
2023/12/16 02:57:02;;;;;;;10.37;7.47;;;7.00;99.90;;;;;;5052070;28;20448;-72
2023/12/16 02:59:31;;;;;;;14.00;6.37;;;7.00;99.90;;;;;;5051993;28;20543;-72
2023/12/16 03:01:58;;;;;;;14.73;6.67;;;7.00;99.90;;;;;;5051693;28;20508;-72
2023/12/16 03:04:25;;;;;;;12.63;5.60;;;7.00;99.90;;;;;;5051571;28;20457;-72
2023/12/16 03:06:52;;;;;;;19.83;6.10;;;6.90;99.90;;;;;;5051727;28;20562;-72
2023/12/16 03:09:19;;;;;;;18.13;5.80;;;6.90;99.90;;;;;;5051723;28;20453;-72
2023/12/16 03:11:45;;;;;;;15.90;5.53;;;6.90;99.90;;;;;;5051320;28;20446;-72
2023/12/16 03:14:12;;;;;;;10.33;5.13;;;6.90;99.90;;;;;;5051345;28;20456;-72
2023/12/16 03:16:41;;;;;;;14.17;5.30;;;6.90;99.90;;;;;;5051440;28;20451;-72
2023/12/16 03:19:08;;;;;;;19.90;5.43;;;6.90;99.90;;;;;;5051633;28;20498;-72
2023/12/16 03:21:36;;;;;;;12.23;4.83;;;7.00;99.90;;;;;;5051596;28;20532;-72
2023/12/16 03:24:04;;;;;;;21.40;5.70;;;6.90;99.90;;;;;;5051319;28;20451;-72
2023/12/16 03:26:31;;;;;;;18.33;5.87;;;6.90;99.90;;;;;;5051275;28;20465;-72
2023/12/16 03:28:58;;;;;;;11.87;5.93;;;6.90;99.90;;;;;;5051419;28;20944;-72
2023/12/16 03:31:25;;;;;;;12.40;6.67;;;7.00;99.90;;;;;;5051464;28;20937;-72
2023/12/16 03:33:53;;;;;;;15.90;4.80;;;7.00;99.90;;;;;;5051029;28;20455;-72
2023/12/16 03:36:20;;;;;;;19.47;5.40;;;7.00;99.90;;;;;;5051508;28;20443;-72
2023/12/16 03:38:48;;;;;;;20.70;5.80;;;7.00;99.90;;;;;;5051310;28;20451;-72
2023/12/16 03:41:15;;;;;;;17.40;5.70;;;7.10;99.90;;;;;;5051387;28;20540;-72
2023/12/16 03:43:41;;;;;;;22.57;5.07;;;7.10;99.90;;;;;;5050938;28;20475;-69
2023/12/16 03:46:09;;;;;;;14.07;6.30;;;7.10;99.90;;;;;;5051440;28;20842;-70
2023/12/16 03:48:35;;;;;;;18.23;6.13;;;7.10;99.60;;;;;;5051240;28;20843;-70
2023/12/16 03:51:04;;;;;;;18.47;5.90;;;7.10;99.70;;;;;;5051179;28;20832;-69
2023/12/16 03:53:31;;;;;;;16.83;5.50;;;7.10;99.60;;;;;;5050946;28;20454;-70
2023/12/16 03:55:59;;;;;;;12.60;4.67;;;7.20;99.90;;;;;;5051195;28;20444;-69
2023/12/16 03:58:26;;;;;;;19.43;5.20;;;7.20;99.90;;;;;;5051280;28;20452;-70
2023/12/16 04:00:54;;;;;;;13.77;5.73;;;7.20;99.90;;;;;;5051498;28;20450;-70
2023/12/16 04:03:21;;;;;;;14.07;5.43;;;7.20;99.90;;;;;;5050912;28;20449;-69
2023/12/16 04:05:49;;;;;;;17.50;5.57;;;7.10;99.90;;;;;;5051074;28;20978;-70
2023/12/16 04:08:17;;;;;;;19.53;6.70;;;7.10;99.90;;;;;;5051144;28;20459;-70
2023/12/16 04:10:44;;;;;;;16.27;6.27;;;7.00;99.90;;;;;;5051141;28;20456;-70
2023/12/16 04:13:11;;;;;;;21.10;8.40;;;7.00;99.90;;;;;;5050931;28;20538;-70
2023/12/16 04:15:38;;;;;;;14.33;6.60;;;7.00;99.90;;;;;;5051055;28;20453;-69
2023/12/16 04:18:05;;;;;;;10.97;6.90;;;7.00;99.90;;;;;;5050858;28;20447;-69
2023/12/16 04:20:32;;;;;;;11.77;6.47;;;7.00;99.90;;;;;;5050888;28;20453;-70
2023/12/16 04:23:00;;;;;;;18.63;7.90;;;6.90;99.90;;;;;;5050663;28;20455;-70
2023/12/16 04:25:28;;;;;;;20.20;8.77;;;6.90;99.90;;;;;;5054601;28;21050;-70
2023/12/16 04:27:55;;;;;;;20.60;8.07;;;6.90;99.90;;;;;;5055090;28;20506;-70
2023/12/16 04:30:22;;;;;;;20.47;10.10;;;6.90;99.90;;;;;;5054968;28;20444;-70
2023/12/16 04:32:49;;;;;;;19.03;9.17;;;6.90;99.90;;;;;;5054552;28;20448;-69
2023/12/16 04:35:16;;;;;;;15.50;8.73;;;6.90;99.90;;;;;;5054702;28;20455;-70
2023/12/16 04:37:43;;;;;;;15.13;8.93;;;6.90;99.90;;;;;;5054545;28;20456;-70
2023/12/16 04:40:10;;;;;;;16.47;8.47;;;6.90;99.90;;;;;;5054610;28;20459;-69
2023/12/16 04:42:42;;;;;;;17.27;9.13;;;6.90;99.90;;;;;;5054215;28;20443;-69
2023/12/16 04:45:09;;;;;;;14.67;9.33;;;6.90;99.90;;;;;;5054484;28;20533;-70
2023/12/16 04:47:37;;;;;;;18.37;9.10;;;6.90;99.90;;;;;;5054350;28;20488;-72
2023/12/16 04:50:04;;;;;;;20.20;9.50;;;6.90;99.90;;;;;;5055014;28;20538;-72
2023/12/16 04:52:31;;;;;;;28.53;12.40;;;6.80;99.90;;;;;;5054130;28;20543;-72
2023/12/16 04:54:58;;;;;;;19.40;11.60;;;6.80;99.90;;;;;;5054645;28;20459;-72
2023/12/16 04:57:25;;;;;;;18.93;12.30;;;6.80;99.90;;;;;;5054579;28;20537;-72
2023/12/16 04:59:53;;;;;;;19.57;13.10;;;6.80;99.90;;;;;;5054408;28;20457;-72
2023/12/16 05:02:20;;;;;;;17.97;12.47;;;6.80;99.90;;;;;;5054011;28;20526;-72
2023/12/16 05:04:47;;;;;;;20.00;13.10;;;6.80;99.90;;;;;;5054425;28;20587;-72
2023/12/16 05:07:14;;;;;;;23.10;12.40;;;6.80;99.90;;;;;;5054007;28;20570;-73
2023/12/16 05:09:41;;;;;;;23.00;11.80;;;6.80;99.90;;;;;;5054186;28;20464;-72
2023/12/16 05:12:08;;;;;;;14.23;12.67;;;6.80;99.90;;;;;;5054209;28;20487;-72
2023/12/16 05:14:35;;;;;;;16.30;14.70;;;6.80;99.90;;;;;;5054103;28;20511;-72
2023/12/16 05:17:03;;;;;;;17.50;12.40;;;6.80;99.90;;;;;;5054025;28;20449;-72
2023/12/16 05:19:30;;;;;;;18.13;13.27;;;6.80;99.90;;;;;;5053885;28;20538;-72
2023/12/16 05:21:57;;;;;;;18.43;11.10;;;6.80;99.90;;;;;;5053912;28;20937;-72
2023/12/16 05:24:24;;;;;;;17.73;11.70;;;6.80;99.90;;;;;;5053722;28;20447;-72
2023/12/16 05:26:51;;;;;;;14.00;10.67;;;6.80;99.90;;;;;;5053603;28;20555;-72
2023/12/16 05:29:17;;;;;;;15.50;8.23;;;6.80;99.90;;;;;;5053974;28;20458;-72
2023/12/16 05:31:44;;;;;;;15.63;10.13;;;6.90;99.90;;;;;;5053720;28;20451;-72
2023/12/16 05:34:13;;;;;;;16.97;8.00;;;6.90;99.90;;;;;;5052861;28;20951;-72
2023/12/16 05:36:40;;;;;;;14.10;6.93;;;6.90;99.90;;;;;;5053836;28;20477;-72
2023/12/16 05:39:07;;;;;;;16.37;7.30;;;7.00;99.90;;;;;;5053725;28;20531;-72
2023/12/16 05:41:34;;;;;;;16.83;6.27;;;7.00;99.90;;;;;;5053597;28;20451;-73
2023/12/16 05:44:01;;;;;;;15.53;7.30;;;7.00;99.90;;;;;;5053281;28;20538;-72
2023/12/16 05:46:28;;;;;;;22.27;7.17;;;7.00;99.90;;;;;;5052967;28;20478;-72
2023/12/16 05:48:55;;;;;;;13.10;6.30;;;7.00;99.90;;;;;;5053687;28;20874;-72
2023/12/16 05:51:23;;;;;;;16.40;5.87;;;7.00;99.90;;;;;;5053186;28;20465;-72
2023/12/16 05:53:50;;;;;;;15.93;6.97;;;7.00;99.90;;;;;;5053167;28;20975;-72
2023/12/16 05:56:17;;;;;;;13.80;5.63;;;7.10;99.90;;;;;;5053321;28;20478;-72
2023/12/16 05:58:44;;;;;;;15.30;5.23;;;7.10;99.90;;;;;;5053060;28;20484;-72
2023/12/16 06:01:11;;;;;;;21.90;5.70;;;7.10;99.90;;;;;;5052855;28;20456;-72
2023/12/16 06:03:38;;;;;;;12.80;5.33;;;7.10;99.90;;;;;;5052667;28;20892;-72
2023/12/16 06:06:06;;;;;;;16.17;6.17;;;7.10;99.90;;;;;;5052967;28;20513;-72
2023/12/16 06:08:34;;;;;;;20.70;5.70;;;7.10;99.90;;;;;;5052976;28;20484;-72
2023/12/16 06:11:01;;;;;;;14.43;5.47;;;7.10;99.90;;;;;;5052985;28;20457;-72
2023/12/16 06:13:28;;;;;;;24.37;6.13;;;7.10;99.90;;;;;;5052681;28;20447;-72
2023/12/16 06:15:55;;;;;;;10.63;4.70;;;7.10;99.90;;;;;;5052954;28;20543;-72
2023/12/16 06:18:21;;;;;;;12.60;5.43;;;7.10;99.90;;;;;;5052830;28;20450;-72
2023/12/16 06:20:48;;;;;;;13.73;5.67;;;7.10;99.90;;;;;;5052914;28;20451;-72
2023/12/16 06:23:15;;;;;;;19.83;5.27;;;7.10;99.90;;;;;;5052521;28;20535;-72
2023/12/16 06:25:43;;;;;;;17.67;6.60;;;7.10;99.90;;;;;;5052881;28;20451;-73
2023/12/16 06:28:10;;;;;;;15.40;5.40;;;7.10;99.90;;;;;;5052520;28;20479;-72
2023/12/16 06:30:39;;;;;;;21.50;6.67;;;7.10;99.90;;;;;;5052710;28;20542;-72
2023/12/16 06:33:06;;;;;;;15.60;5.73;;;7.10;99.90;;;;;;5052348;28;20447;-72
2023/12/16 06:35:33;;;;;;;14.00;6.50;;;7.10;99.90;;;;;;5052440;28;20505;-72
2023/12/16 06:38:00;;;;;;;11.20;5.50;;;7.10;99.90;;;;;;5052309;28;20454;-72
2023/12/16 06:40:28;;;;;;;11.87;5.90;;;7.10;99.90;;;;;;5052355;28;20447;-72
2023/12/16 06:42:56;;;;;;;15.70;7.77;;;7.10;99.90;;;;;;5051882;28;20456;-72
2023/12/16 06:45:23;;;;;;;15.50;5.80;;;7.10;99.90;;;;;;5052166;28;20485;-72
2023/12/16 06:47:50;;;;;;;15.30;7.10;;;7.10;99.90;;;;;;5051279;28;20506;-73
2023/12/16 06:50:17;;;;;;;21.87;5.87;;;7.10;99.90;;;;;;5052255;28;20535;-72
2023/12/16 06:52:44;;;;;;;11.17;5.50;;;7.10;99.90;;;;;;5051751;28;20466;-72
2023/12/16 06:55:11;;;;;;;24.53;5.80;;;7.20;99.90;;;;;;5052063;28;20460;-72
2023/12/16 06:57:38;;;;;;;13.17;5.20;;;7.20;99.90;;;;;;5051880;28;20501;-72
2023/12/16 07:00:09;;;;;;;16.73;5.43;;;7.20;99.90;;;;;;5052374;28;20453;-72
2023/12/16 07:02:36;;;;;;;13.57;5.97;;;7.20;99.90;;;;;;5051619;28;20457;-72
2023/12/16 07:05:03;;;;;;;20.20;4.87;;;7.20;99.90;;;;;;5052338;28;20450;-72
2023/12/16 07:07:31;;;;;;;14.27;5.83;;;7.20;99.90;;;;;;5051767;28;20486;-72
2023/12/16 07:09:58;;;;;;;15.80;5.87;;;7.20;99.90;;;;;;5051705;28;20471;-72
2023/12/16 07:12:26;;;;;;;12.73;4.90;;;7.20;99.90;;;;;;5051765;28;20451;-72
2023/12/16 07:14:52;;;;;;;9.47;4.50;;;7.20;99.90;;;;;;5052121;28;20457;-72
2023/12/16 07:17:21;;;;;;;17.00;6.30;;;7.20;99.90;;;;;;5041138;28;20935;-72
2023/12/16 07:19:48;;;;;;;10.10;4.17;;;7.20;99.90;;;;;;5031768;28;20817;-72
2023/12/16 07:22:16;;;;;;;14.93;5.43;;;7.20;99.90;;;;;;5030860;28;20825;-73
2023/12/16 07:24:43;;;;;;;20.67;4.73;;;7.20;99.90;;;;;;5031668;28;20543;-72
2023/12/16 07:27:10;;;;;;;16.63;5.27;;;7.10;99.90;;;;;;5031492;28;20504;-72
2023/12/16 07:29:37;;;;;;;12.80;5.27;;;7.00;99.90;;;;;;5031409;28;20459;-72
2023/12/16 07:32:04;;;;;;;9.63;6.07;;;6.80;99.90;;;;;;5031801;28;20842;-72
2023/12/16 07:34:33;;;;;;;16.90;7.87;;;6.60;99.90;;;;;;5031396;28;20477;-72
2023/12/16 07:37:00;;;;;;;20.50;7.07;;;6.40;99.90;;;;;;5031316;28;20854;-72
2023/12/16 07:39:27;;;;;;;15.80;7.53;;;6.30;99.90;;;;;;5031292;28;20527;-72
2023/12/16 07:41:54;;;;;;;28.27;8.60;;;6.20;99.90;;;;;;5031484;28;20546;-72
2023/12/16 07:44:21;;;;;;;14.23;11.03;;;6.20;99.90;;;;;;5031158;28;20448;-72
2023/12/16 07:46:48;;;;;;;20.13;14.47;;;6.20;99.90;;;;;;5031397;28;20918;-72
2023/12/16 07:49:17;;;;;;;19.83;14.70;;;6.20;99.90;;;;;;5031328;28;20503;-72
2023/12/16 07:51:45;;;;;;;20.17;15.83;;;6.20;99.90;;;;;;5031017;28;20464;-72
2023/12/16 07:54:13;;;;;;;26.90;16.77;;;6.20;99.90;;;;;;5031301;28;20487;-72
2023/12/16 07:56:39;;;;;;;27.73;18.87;;;6.20;99.90;;;;;;5031149;28;20453;-72
2023/12/16 07:59:07;;;;;;;30.93;24.73;;;6.20;99.90;;;;;;5034850;28;20453;-72
2023/12/16 08:01:34;;;;;;;20.73;17.20;;;6.20;99.90;;;;;;5035716;28;20474;-72
2023/12/16 08:04:01;;;;;;;19.13;14.70;;;6.20;99.90;;;;;;5035337;28;20789;-72
2023/12/16 08:06:28;;;;;;;21.33;16.20;;;6.20;99.90;;;;;;5035208;28;20454;-72
2023/12/16 08:08:56;;;;;;;19.43;14.60;;;6.20;99.90;;;;;;5035107;28;20515;-72
2023/12/16 08:11:23;;;;;;;19.37;15.30;;;6.20;99.90;;;;;;5042156;28;20487;-72
2023/12/16 08:13:50;;;;;;;20.97;16.23;;;6.20;99.90;;;;;;5054091;28;20968;-72
2023/12/16 08:16:17;;;;;;;19.50;17.57;;;6.20;99.90;;;;;;5054857;28;20452;-72
2023/12/16 08:18:45;;;;;;;16.70;15.17;;;6.20;99.90;;;;;;5054187;28;20491;-72
2023/12/16 08:21:12;;;;;;;17.57;14.00;;;6.20;99.90;;;;;;5054503;28;20451;-72
2023/12/16 08:23:39;;;;;;;19.90;15.00;;;6.20;99.90;;;;;;5054042;28;20543;-72
2023/12/16 08:26:11;;;;;;;15.93;14.47;;;6.30;99.90;;;;;;5054240;28;21021;-72
2023/12/16 08:28:38;;;;;;;16.07;14.60;;;6.30;99.90;;;;;;5053443;28;20520;-72
2023/12/16 08:31:05;;;;;;;18.27;15.13;;;6.30;99.90;;;;;;5053278;28;20727;-72
2023/12/16 08:33:32;;;;;;;17.20;14.73;;;6.30;99.90;;;;;;5054231;28;20962;-72
2023/12/16 08:35:59;;;;;;;18.17;14.80;;;6.40;99.90;;;;;;5054442;28;20455;-72
2023/12/16 08:38:26;;;;;;;17.90;12.60;;;6.40;99.90;;;;;;5054660;28;20450;-72
2023/12/16 08:40:55;;;;;;;17.10;12.80;;;6.50;99.90;;;;;;5054431;28;20461;-72
2023/12/16 08:43:24;;;;;;;24.40;13.15;;;6.60;99.90;;;;;;5053871;28;20869;-72
2023/12/16 08:45:51;;;;;;;22.13;7.90;;;6.60;99.90;;;;;;5053513;28;20449;-73
2023/12/16 08:48:18;;;;;;;12.10;7.60;;;6.70;99.90;;;;;;5053197;28;20274;-73
2023/12/16 08:50:45;;;;;;;17.03;8.40;;;6.80;99.90;;;;;;5053852;28;20448;-73
2023/12/16 08:53:13;;;;;;;22.00;8.37;;;7.00;99.90;;;;;;5054223;28;20551;-73
2023/12/16 08:55:41;;;;;;;14.30;7.40;;;7.10;99.90;;;;;;5056610;28;20463;-73
2023/12/16 08:58:08;;;;;;;16.63;7.13;;;7.30;99.90;;;;;;5056618;28;20859;-73
2023/12/16 09:00:37;;;;;;;25.07;7.20;;;7.40;99.90;;;;;;5056427;28;21026;-71
2023/12/16 09:03:04;;;;;;;16.07;4.83;;;7.60;99.90;;;;;;5054141;28;20537;-70
2023/12/16 09:05:31;;;;;;;8.23;4.80;;;7.60;99.90;;;;;;5053212;28;21001;-70
2023/12/16 09:07:58;;;;;;;10.70;4.97;;;7.70;99.90;;;;;;5054045;28;20483;-70
2023/12/16 09:10:25;;;;;;;16.80;4.63;;;7.70;99.90;;;;;;5053493;28;20454;-71
2023/12/16 09:12:51;;;;;;;19.17;6.50;;;7.90;99.90;;;;;;5053486;28;20544;-70
2023/12/16 09:15:18;;;;;;;15.83;6.27;;;8.10;99.90;;;;;;5054024;28;20448;-71
2023/12/16 09:17:47;;;;;;;10.17;4.63;;;8.30;99.90;;;;;;5053520;28;20541;-71
2023/12/16 09:20:14;;;;;;;12.47;3.63;;;8.40;99.90;;;;;;5053318;28;20450;-70
2023/12/16 09:22:42;;;;;;;17.23;5.00;;;8.50;98.50;;;;;;5053673;28;20458;-70
2023/12/16 09:25:10;;;;;;;14.93;5.50;;;8.50;99.70;;;;;;5053761;28;20455;-71
2023/12/16 09:27:36;;;;;;;12.83;4.60;;;8.50;99.60;;;;;;5053475;28;20474;-71
2023/12/16 09:30:04;;;;;;;11.40;4.90;;;8.50;99.90;;;;;;5053922;28;20562;-71
2023/12/16 09:32:32;;;;;;;19.53;6.67;;;8.40;99.90;;;;;;5053129;28;20497;-71
2023/12/16 09:35:02;;;;;;;15.63;4.43;;;8.40;99.90;;;;;;5053553;28;20458;-71
2023/12/16 09:37:29;;;;;;;14.73;5.73;;;8.40;99.90;;;;;;5053002;28;20454;-70
2023/12/16 09:39:56;;;;;;;14.03;4.90;;;8.30;99.90;;;;;;5052975;28;20446;-71
2023/12/16 09:42:26;;;;;;;11.53;5.07;;;8.40;99.90;;;;;;5052317;28;20515;-70
2023/12/16 09:44:57;;;;;;;14.03;4.50;;;8.50;99.90;;;;;;5052432;28;20521;-70
2023/12/16 09:47:24;;;;;;;19.90;5.10;;;8.60;99.90;;;;;;5052878;28;20574;-71
2023/12/16 09:49:53;;;;;;;14.10;4.70;;;8.70;99.90;;;;;;5052755;28;20453;-71
2023/12/16 09:52:21;;;;;;;17.13;4.50;;;8.80;99.90;;;;;;5052790;28;20466;-71
2023/12/16 09:54:49;;;;;;;18.67;4.30;;;8.90;99.90;;;;;;5052977;28;20504;-71
2023/12/16 09:57:17;;;;;;;19.07;5.27;;;9.00;99.90;;;;;;5051920;28;20452;-71
2023/12/16 09:59:45;;;;;;;20.73;5.27;;;9.00;99.90;;;;;;5047555;28;20461;-71
2023/12/16 10:02:20;;;;;;;9.83;4.97;;;9.00;99.90;;;;;;5051800;28;20447;-71
2023/12/16 10:04:51;;;;;;;15.37;3.90;;;9.00;99.90;;;;;;5032988;28;20962;-71
2023/12/16 10:07:18;;;;;;;15.67;5.20;;;9.00;99.90;;;;;;5034987;28;20452;-70
2023/12/16 10:09:47;;;;;;;22.13;5.20;;;8.90;99.90;;;;;;5052577;28;20443;-71
2023/12/16 10:12:14;;;;;;;13.13;4.67;;;8.90;99.90;;;;;;5050978;28;20447;-70
2023/12/16 10:14:48;;;;;;;10.30;4.00;;;9.00;99.90;;;;;;5051668;28;20542;-70
2023/12/16 10:17:16;;;;;;;19.17;4.83;;;9.00;99.90;;;;;;5052330;28;20971;-70
2023/12/16 10:19:44;;;;;;;13.13;4.50;;;9.00;99.90;;;;;;5052291;28;20447;-71
2023/12/16 10:22:13;;;;;;;12.23;4.43;;;9.10;99.90;;;;;;5051217;28;20526;-70
2023/12/16 10:24:41;;;;;;;15.95;6.47;;;9.10;99.90;;;;;;5051421;28;20455;-70
2023/12/16 10:27:12;;;;;;;18.03;5.00;;;9.10;99.90;;;;;;5049748;28;20196;-71
2023/12/16 10:29:40;;;;;;;15.37;4.30;;;9.10;99.90;;;;;;5051290;28;20533;-71
2023/12/16 10:32:10;;;;;;;13.67;4.10;;;9.20;99.90;;;;;;5052480;28;20505;-71
2023/12/16 10:34:38;;;;;;;14.63;5.17;;;9.40;99.90;;;;;;5052629;28;20447;-71
2023/12/16 10:37:06;;;;;;;16.77;5.87;;;9.60;99.90;;;;;;5052273;28;20490;-71
2023/12/16 10:39:34;;;;;;;14.40;3.97;;;9.60;99.90;;;;;;5052332;28;20448;-71
2023/12/16 10:42:01;;;;;;;16.43;5.13;;;9.80;99.90;;;;;;5052497;28;20476;-71
2023/12/16 10:44:30;;;;;;;14.50;4.57;;;10.00;97.70;;;;;;5051180;28;20497;-71
2023/12/16 10:46:57;;;;;;;15.67;4.60;;;10.20;98.00;;;;;;5052074;28;20829;-71
2023/12/16 10:49:29;;;;;;;13.73;3.90;;;10.40;97.80;;;;;;5051526;28;20479;-71
2023/12/16 10:52:05;;;;;;;15.43;4.33;;;10.50;97.80;;;;;;5051187;28;20538;-71
2023/12/16 10:54:37;;;;;;;12.53;3.53;;;10.60;97.80;;;;;;5051038;28;20447;-71
2023/12/16 10:57:19;;;;;;;17.63;3.70;;;10.90;98.00;;;;;;5051888;28;20545;-71
2023/12/16 10:59:55;;;;;;;16.65;4.90;;;11.10;98.10;;;;;;5050400;28;20478;-71
2023/12/16 11:02:28;;;;;;;21.87;4.80;;;11.10;98.00;;;;;;5051744;28;20197;-71
2023/12/16 11:05:01;;;;;;;18.30;4.50;;;11.40;94.90;;;;;;5052432;28;20443;-71
2023/12/16 11:07:29;;;;;;;11.77;3.47;;;11.60;93.30;;;;;;5051674;28;20473;-70
2023/12/16 11:09:57;;;;;;;18.47;3.90;;;11.70;91.80;;;;;;5052185;28;20951;-70
2023/12/16 11:12:25;;;;;;;16.40;4.30;;;11.70;91.70;;;;;;5051204;28;20435;-72
2023/12/16 11:14:55;;;;;;;12.13;4.50;;;11.80;91.70;;;;;;5051850;28;20443;-71
2023/12/16 11:17:28;;;;;;;18.47;3.77;;;11.80;91.70;;;;;;5051817;28;20450;-70
2023/12/16 11:19:59;;;;;;;21.95;5.60;;;11.80;92.10;;;;;;5051107;28;20439;-70
2023/12/16 11:22:26;;;;;;;13.03;4.47;;;11.90;91.80;;;;;;5051625;28;20192;-71
2023/12/16 11:24:54;;;;;;;15.10;4.20;;;12.10;91.80;;;;;;5051650;28;20452;-70
2023/12/16 11:27:21;;;;;;;13.57;3.87;;;12.00;89.00;;;;;;5051998;28;20505;-71
2023/12/16 11:29:48;;;;;;;19.20;4.00;;;12.00;87.90;;;;;;5051903;28;20486;-71
2023/12/16 11:32:17;;;;;;;15.43;4.00;;;12.00;88.60;;;;;;5051040;28;20475;-70
2023/12/16 11:34:47;;;;;;;15.93;3.27;;;12.00;90.90;;;;;;5051571;28;20510;-70
2023/12/16 11:37:14;;;;;;;13.77;3.53;;;11.80;86.30;;;;;;5051634;28;20876;-70
2023/12/16 11:39:44;;;;;;;18.53;3.60;;;11.80;91.50;;;;;;5048145;28;20470;-70
2023/12/16 11:42:14;;;;;;;20.60;4.20;;;11.60;90.80;;;;;;5051342;28;20451;-71
2023/12/16 11:44:49;;;;;;;15.90;4.10;;;11.40;91.50;;;;;;5050432;28;20448;-70
2023/12/16 11:47:22;;;;;;;19.33;5.63;;;11.30;91.50;;;;;;5050738;28;20447;-70
2023/12/16 11:49:49;;;;;;;24.97;6.90;;;11.30;91.50;;;;;;5050122;28;20475;-70
2023/12/16 11:52:18;;;;;;;18.73;4.30;;;11.40;91.50;;;;;;5049957;28;20461;-70
2023/12/16 11:54:53;;;;;;;18.87;6.00;;;11.30;91.50;;;;;;5050374;28;20443;-70
2023/12/16 11:57:21;;;;;;;16.13;5.80;;;11.30;91.50;;;;;;5050518;28;20930;-70
2023/12/16 11:59:51;;;;;;;16.70;4.40;;;11.30;91.50;;;;;;5051186;28;20788;-70
2023/12/16 12:02:18;;;;;;;10.70;3.70;;;11.20;91.50;;;;;;5050452;28;21006;-70
2023/12/16 12:04:47;;;;;;;16.13;5.20;;;11.10;91.40;;;;;;5051137;28;20454;-70
2023/12/16 12:07:15;;;;;;;13.93;3.50;;;11.20;91.50;;;;;;5050485;28;20539;-70
2023/12/16 12:09:42;;;;;;;13.63;3.30;;;11.20;91.50;;;;;;5050298;28;20479;-71
2023/12/16 12:12:10;;;;;;;12.93;4.27;;;11.20;91.80;;;;;;5051698;28;20509;-70
2023/12/16 12:14:39;;;;;;;14.20;4.50;;;11.30;91.50;;;;;;5050331;28;20959;-70
2023/12/16 12:17:06;;;;;;;15.07;6.73;;;11.20;91.50;;;;;;5051057;28;20451;-70
2023/12/16 12:19:33;;;;;;;19.93;6.60;;;11.20;91.50;;;;;;5051379;28;20453;-70
2023/12/16 12:22:02;;;;;;;17.53;4.77;;;11.10;91.40;;;;;;5050834;28;20447;-70
2023/12/16 12:24:29;;;;;;;12.03;3.97;;;11.20;93.20;;;;;;5050695;28;20447;-70
2023/12/16 12:26:56;;;;;;;13.20;3.73;;;11.10;92.70;;;;;;5051616;28;20867;-70
2023/12/16 12:29:23;;;;;;;11.73;3.67;;;11.00;91.90;;;;;;5051454;28;20475;-70
2023/12/16 12:31:52;;;;;;;12.97;4.63;;;11.00;93.30;;;;;;5050221;28;20859;-70
2023/12/16 12:34:19;;;;;;;19.43;4.27;;;10.90;94.40;;;;;;5050535;28;20455;-70
2023/12/16 12:36:47;;;;;;;12.80;3.30;;;11.00;94.70;;;;;;5050255;28;20483;-70
2023/12/16 12:39:19;;;;;;;17.17;3.80;;;10.90;94.70;;;;;;5050271;28;20443;-70
2023/12/16 12:41:59;;;;;;;11.23;3.33;;;10.90;94.70;;;;;;5050046;28;20455;-70
2023/12/16 12:44:26;;;;;;;19.33;3.83;;;11.00;94.70;;;;;;5048446;28;20532;-70